sensor_id;sensor_type;location;lat;lon;timestamp;temperature;humidity
22574;DHT22;11453;52.052;20.430;2022-09-09T00:04:30;15.40;98.40
22574;DHT22;11453;52.052;20.430;2022-09-09T00:12:48;15.40;98.70
22574;DHT22;11453;52.052;20.430;2022-09-09T00:23:12;15.30;99.20
22574;DHT22;11453;52.052;20.430;2022-09-09T00:31:33;15.20;99.50
22574;DHT22;11453;52.052;20.430;2022-09-09T00:34:19;15.20;99.50
22574;DHT22;11453;52.052;20.430;2022-09-09T00:36:51;15.20;99.60
22574;DHT22;11453;52.052;20.430;2022-09-09T00:42:18;15.10;99.80
22574;DHT22;11453;52.052;20.430;2022-09-09T00:58:08;15.10;99.90
22574;DHT22;11453;52.052;20.430;2022-09-09T01:00:44;15.10;99.90
22574;DHT22;11453;52.052;20.430;2022-09-09T01:06:22;15.00;99.90
22574;DHT22;11453;52.052;20.430;2022-09-09T01:17:48;15.00;99.90
22574;DHT22;11453;52.052;20.430;2022-09-09T01:22:43;14.90;99.90
22574;DHT22;11453;52.052;20.430;2022-09-09T01:28:22;15.00;99.90
22574;DHT22;11453;52.052;20.430;2022-09-09T01:30:49;14.90;99.90
22574;DHT22;11453;52.052;20.430;2022-09-09T01:33:17;14.90;99.90
22574;DHT22;11453;52.052;20.430;2022-09-09T01:35:46;14.90;99.90
22574;DHT22;11453;52.052;20.430;2022-09-09T01:38:14;14.90;99.90
22574;DHT22;11453;52.052;20.430;2022-09-09T01:40:40;14.90;99.90
22574;DHT22;11453;52.052;20.430;2022-09-09T01:43:06;14.90;99.90
22574;DHT22;11453;52.052;20.430;2022-09-09T01:45:33;14.80;99.90
22574;DHT22;11453;52.052;20.430;2022-09-09T01:48:00;14.90;99.90
22574;DHT22;11453;52.052;20.430;2022-09-09T01:50:26;14.80;99.90
22574;DHT22;11453;52.052;20.430;2022-09-09T01:52:58;14.80;99.90
22574;DHT22;11453;52.052;20.430;2022-09-09T01:55:33;14.80;99.90
22574;DHT22;11453;52.052;20.430;2022-09-09T02:01:26;14.80;99.90
22574;DHT22;11453;52.052;20.430;2022-09-09T02:03:57;14.80;99.90
22574;DHT22;11453;52.052;20.430;2022-09-09T02:06:35;14.80;99.90
22574;DHT22;11453;52.052;20.430;2022-09-09T02:09:07;14.80;99.90
22574;DHT22;11453;52.052;20.430;2022-09-09T02:11:36;14.80;99.90
22574;DHT22;11453;52.052;20.430;2022-09-09T02:14:27;14.80;99.90
22574;DHT22;11453;52.052;20.430;2022-09-09T02:17:03;14.80;99.90
22574;DHT22;11453;52.052;20.430;2022-09-09T02:19:39;14.80;99.90
22574;DHT22;11453;52.052;20.430;2022-09-09T02:22:07;14.80;99.90
22574;DHT22;11453;52.052;20.430;2022-09-09T02:24:35;14.80;99.90
22574;DHT22;11453;52.052;20.430;2022-09-09T02:27:04;14.80;99.90
22574;DHT22;11453;52.052;20.430;2022-09-09T02:29:40;14.80;99.90
22574;DHT22;11453;52.052;20.430;2022-09-09T02:32:11;14.80;99.90
22574;DHT22;11453;52.052;20.430;2022-09-09T02:34:42;14.80;99.90
22574;DHT22;11453;52.052;20.430;2022-09-09T02:37:09;14.80;99.90
22574;DHT22;11453;52.052;20.430;2022-09-09T02:39:36;14.80;99.90
22574;DHT22;11453;52.052;20.430;2022-09-09T02:42:04;14.80;99.90
22574;DHT22;11453;52.052;20.430;2022-09-09T02:44:29;14.80;99.90
22574;DHT22;11453;52.052;20.430;2022-09-09T02:47:19;14.70;99.90
22574;DHT22;11453;52.052;20.430;2022-09-09T02:56:02;14.80;99.90
22574;DHT22;11453;52.052;20.430;2022-09-09T02:58:04;14.80;99.90
22574;DHT22;11453;52.052;20.430;2022-09-09T03:00:32;14.70;99.90
22574;DHT22;11453;52.052;20.430;2022-09-09T03:02:58;14.70;99.90
22574;DHT22;11453;52.052;20.430;2022-09-09T03:05:24;14.70;99.90
22574;DHT22;11453;52.052;20.430;2022-09-09T03:07:50;14.70;99.90
22574;DHT22;11453;52.052;20.430;2022-09-09T03:10:16;14.70;99.90
22574;DHT22;11453;52.052;20.430;2022-09-09T03:12:43;14.70;99.90
22574;DHT22;11453;52.052;20.430;2022-09-09T03:15:09;14.70;99.90
22574;DHT22;11453;52.052;20.430;2022-09-09T03:17:35;14.70;99.90
22574;DHT22;11453;52.052;20.430;2022-09-09T03:20:02;14.70;99.90
22574;DHT22;11453;52.052;20.430;2022-09-09T03:22:28;14.70;99.90
22574;DHT22;11453;52.052;20.430;2022-09-09T03:24:54;14.70;99.90
22574;DHT22;11453;52.052;20.430;2022-09-09T03:27:19;14.70;99.90
22574;DHT22;11453;52.052;20.430;2022-09-09T03:29:46;14.70;99.90
22574;DHT22;11453;52.052;20.430;2022-09-09T03:32:12;14.70;99.90
22574;DHT22;11453;52.052;20.430;2022-09-09T03:34:37;14.70;99.90
22574;DHT22;11453;52.052;20.430;2022-09-09T03:37:06;14.70;99.90
22574;DHT22;11453;52.052;20.430;2022-09-09T03:39:31;14.80;99.90
22574;DHT22;11453;52.052;20.430;2022-09-09T03:41:57;14.70;99.90
22574;DHT22;11453;52.052;20.430;2022-09-09T03:44:23;14.70;99.90
22574;DHT22;11453;52.052;20.430;2022-09-09T03:46:49;14.70;99.90
22574;DHT22;11453;52.052;20.430;2022-09-09T03:49:14;14.70;99.90
22574;DHT22;11453;52.052;20.430;2022-09-09T03:51:41;14.80;99.90
22574;DHT22;11453;52.052;20.430;2022-09-09T03:54:07;14.80;99.90
22574;DHT22;11453;52.052;20.430;2022-09-09T03:56:36;14.80;99.90
22574;DHT22;11453;52.052;20.430;2022-09-09T03:59:02;14.80;99.90
22574;DHT22;11453;52.052;20.430;2022-09-09T04:01:28;14.80;99.90
22574;DHT22;11453;52.052;20.430;2022-09-09T04:03:54;14.80;99.90
22574;DHT22;11453;52.052;20.430;2022-09-09T04:06:24;14.80;99.90
22574;DHT22;11453;52.052;20.430;2022-09-09T04:08:49;14.80;99.90
22574;DHT22;11453;52.052;20.430;2022-09-09T04:11:17;14.80;99.90
22574;DHT22;11453;52.052;20.430;2022-09-09T04:13:43;14.80;99.90
22574;DHT22;11453;52.052;20.430;2022-09-09T04:16:11;14.80;99.90
22574;DHT22;11453;52.052;20.430;2022-09-09T04:18:38;14.80;99.90
22574;DHT22;11453;52.052;20.430;2022-09-09T04:21:04;14.80;99.90
22574;DHT22;11453;52.052;20.430;2022-09-09T04:23:32;14.80;99.90
22574;DHT22;11453;52.052;20.430;2022-09-09T04:26:00;14.80;99.90
22574;DHT22;11453;52.052;20.430;2022-09-09T04:28:29;14.80;99.90
22574;DHT22;11453;52.052;20.430;2022-09-09T04:30:55;14.80;99.90
22574;DHT22;11453;52.052;20.430;2022-09-09T04:33:24;14.80;99.90
22574;DHT22;11453;52.052;20.430;2022-09-09T04:35:52;14.80;99.90
22574;DHT22;11453;52.052;20.430;2022-09-09T04:38:19;14.80;99.90
22574;DHT22;11453;52.052;20.430;2022-09-09T04:40:49;14.80;99.90
22574;DHT22;11453;52.052;20.430;2022-09-09T04:43:17;14.80;99.90
22574;DHT22;11453;52.052;20.430;2022-09-09T04:45:47;14.80;99.90
22574;DHT22;11453;52.052;20.430;2022-09-09T04:48:12;14.80;99.90
22574;DHT22;11453;52.052;20.430;2022-09-09T04:50:39;14.70;99.90
22574;DHT22;11453;52.052;20.430;2022-09-09T04:53:06;14.80;99.90
22574;DHT22;11453;52.052;20.430;2022-09-09T04:55:32;14.80;99.90
22574;DHT22;11453;52.052;20.430;2022-09-09T04:58:07;14.80;99.90
22574;DHT22;11453;52.052;20.430;2022-09-09T05:00:34;14.80;99.90
22574;DHT22;11453;52.052;20.430;2022-09-09T05:03:04;14.80;99.90
22574;DHT22;11453;52.052;20.430;2022-09-09T05:05:31;14.80;99.90
22574;DHT22;11453;52.052;20.430;2022-09-09T05:08:04;14.80;99.90
22574;DHT22;11453;52.052;20.430;2022-09-09T05:10:31;14.80;99.90
22574;DHT22;11453;52.052;20.430;2022-09-09T05:12:57;14.80;99.90
22574;DHT22;11453;52.052;20.430;2022-09-09T05:15:23;14.80;99.90
22574;DHT22;11453;52.052;20.430;2022-09-09T05:17:49;14.70;99.90
22574;DHT22;11453;52.052;20.430;2022-09-09T05:20:14;14.70;99.90
22574;DHT22;11453;52.052;20.430;2022-09-09T05:22:40;14.70;99.90
22574;DHT22;11453;52.052;20.430;2022-09-09T05:25:06;14.70;99.90
22574;DHT22;11453;52.052;20.430;2022-09-09T05:27:34;14.80;99.90
22574;DHT22;11453;52.052;20.430;2022-09-09T05:30:00;14.70;99.90
22574;DHT22;11453;52.052;20.430;2022-09-09T05:32:25;14.70;99.90
22574;DHT22;11453;52.052;20.430;2022-09-09T05:34:51;14.70;99.90
22574;DHT22;11453;52.052;20.430;2022-09-09T05:37:18;14.70;99.90
22574;DHT22;11453;52.052;20.430;2022-09-09T05:39:43;14.70;99.90
22574;DHT22;11453;52.052;20.430;2022-09-09T05:42:09;14.70;99.90
22574;DHT22;11453;52.052;20.430;2022-09-09T05:44:35;14.70;99.90
22574;DHT22;11453;52.052;20.430;2022-09-09T05:47:01;14.70;99.90
22574;DHT22;11453;52.052;20.430;2022-09-09T05:49:26;14.70;99.90
22574;DHT22;11453;52.052;20.430;2022-09-09T05:51:52;14.70;99.90
22574;DHT22;11453;52.052;20.430;2022-09-09T05:54:18;14.70;99.90
22574;DHT22;11453;52.052;20.430;2022-09-09T05:56:44;14.70;99.90
22574;DHT22;11453;52.052;20.430;2022-09-09T05:59:10;14.70;99.90
22574;DHT22;11453;52.052;20.430;2022-09-09T06:01:37;14.70;99.90
22574;DHT22;11453;52.052;20.430;2022-09-09T06:04:06;14.70;99.90
22574;DHT22;11453;52.052;20.430;2022-09-09T06:06:35;14.80;99.90
22574;DHT22;11453;52.052;20.430;2022-09-09T06:09:03;14.80;99.90
22574;DHT22;11453;52.052;20.430;2022-09-09T06:11:32;14.80;99.90
22574;DHT22;11453;52.052;20.430;2022-09-09T06:13:59;14.80;99.90
22574;DHT22;11453;52.052;20.430;2022-09-09T06:16:27;14.90;99.90
22574;DHT22;11453;52.052;20.430;2022-09-09T06:18:54;14.90;99.90
22574;DHT22;11453;52.052;20.430;2022-09-09T06:21:21;14.90;99.90
22574;DHT22;11453;52.052;20.430;2022-09-09T06:23:48;14.90;99.90
22574;DHT22;11453;52.052;20.430;2022-09-09T06:26:22;15.00;99.90
22574;DHT22;11453;52.052;20.430;2022-09-09T06:28:49;15.00;99.90
22574;DHT22;11453;52.052;20.430;2022-09-09T06:31:17;15.00;99.90
22574;DHT22;11453;52.052;20.430;2022-09-09T06:33:47;15.10;99.90
22574;DHT22;11453;52.052;20.430;2022-09-09T06:36:15;15.10;99.90
22574;DHT22;11453;52.052;20.430;2022-09-09T06:38:42;15.10;99.90
22574;DHT22;11453;52.052;20.430;2022-09-09T06:41:09;15.10;99.90
22574;DHT22;11453;52.052;20.430;2022-09-09T06:43:35;15.10;99.90
22574;DHT22;11453;52.052;20.430;2022-09-09T06:46:12;15.20;99.90
22574;DHT22;11453;52.052;20.430;2022-09-09T06:48:42;15.20;99.90
22574;DHT22;11453;52.052;20.430;2022-09-09T06:53:35;15.30;99.90
22574;DHT22;11453;52.052;20.430;2022-09-09T06:56:25;15.30;99.90
22574;DHT22;11453;52.052;20.430;2022-09-09T06:58:54;15.30;99.90
22574;DHT22;11453;52.052;20.430;2022-09-09T07:01:27;15.30;99.90
22574;DHT22;11453;52.052;20.430;2022-09-09T07:03:55;15.30;99.90
22574;DHT22;11453;52.052;20.430;2022-09-09T07:06:29;15.30;99.90
22574;DHT22;11453;52.052;20.430;2022-09-09T07:08:59;15.40;99.90
22574;DHT22;11453;52.052;20.430;2022-09-09T07:11:27;15.40;99.90
22574;DHT22;11453;52.052;20.430;2022-09-09T07:13:54;15.40;99.90
22574;DHT22;11453;52.052;20.430;2022-09-09T07:16:21;15.40;99.90
22574;DHT22;11453;52.052;20.430;2022-09-09T07:18:54;15.50;99.90
22574;DHT22;11453;52.052;20.430;2022-09-09T07:21:27;15.50;99.90
22574;DHT22;11453;52.052;20.430;2022-09-09T07:23:53;15.60;99.90
22574;DHT22;11453;52.052;20.430;2022-09-09T07:26:21;15.60;99.90
22574;DHT22;11453;52.052;20.430;2022-09-09T07:28:48;15.60;99.90
22574;DHT22;11453;52.052;20.430;2022-09-09T07:31:19;15.60;99.90
22574;DHT22;11453;52.052;20.430;2022-09-09T07:33:46;15.60;99.90
22574;DHT22;11453;52.052;20.430;2022-09-09T07:36:18;15.60;99.90
22574;DHT22;11453;52.052;20.430;2022-09-09T07:38:55;15.60;99.90
22574;DHT22;11453;52.052;20.430;2022-09-09T07:43:59;15.70;99.90
22574;DHT22;11453;52.052;20.430;2022-09-09T07:46:28;15.70;99.90
22574;DHT22;11453;52.052;20.430;2022-09-09T07:48:56;15.70;99.90
22574;DHT22;11453;52.052;20.430;2022-09-09T07:51:27;15.60;99.90
22574;DHT22;11453;52.052;20.430;2022-09-09T07:53:56;15.70;99.90
22574;DHT22;11453;52.052;20.430;2022-09-09T07:56:24;15.70;99.90
22574;DHT22;11453;52.052;20.430;2022-09-09T07:58:51;15.70;99.90
22574;DHT22;11453;52.052;20.430;2022-09-09T08:01:19;15.80;99.90
22574;DHT22;11453;52.052;20.430;2022-09-09T08:03:46;15.80;99.90
22574;DHT22;11453;52.052;20.430;2022-09-09T08:06:13;15.80;99.90
22574;DHT22;11453;52.052;20.430;2022-09-09T08:08:39;15.80;99.90
22574;DHT22;11453;52.052;20.430;2022-09-09T08:11:14;15.90;99.90
22574;DHT22;11453;52.052;20.430;2022-09-09T08:13:42;16.00;99.90
22574;DHT22;11453;52.052;20.430;2022-09-09T08:18:35;16.10;99.90
22574;DHT22;11453;52.052;20.430;2022-09-09T08:21:14;16.20;99.90
22574;DHT22;11453;52.052;20.430;2022-09-09T08:23:41;16.30;99.90
22574;DHT22;11453;52.052;20.430;2022-09-09T08:28:38;16.40;99.90
22574;DHT22;11453;52.052;20.430;2022-09-09T08:31:10;16.40;99.90
22574;DHT22;11453;52.052;20.430;2022-09-09T08:33:36;16.40;99.90
22574;DHT22;11453;52.052;20.430;2022-09-09T08:36:05;16.40;99.90
22574;DHT22;11453;52.052;20.430;2022-09-09T08:38:31;16.40;99.90
22574;DHT22;11453;52.052;20.430;2022-09-09T08:41:19;16.40;99.90
22574;DHT22;11453;52.052;20.430;2022-09-09T08:43:50;16.50;99.90
22574;DHT22;11453;52.052;20.430;2022-09-09T08:51:58;16.60;99.90
22574;DHT22;11453;52.052;20.430;2022-09-09T08:54:26;16.70;99.90
22574;DHT22;11453;52.052;20.430;2022-09-09T08:56:53;16.70;99.90
22574;DHT22;11453;52.052;20.430;2022-09-09T08:59:19;16.70;99.90
22574;DHT22;11453;52.052;20.430;2022-09-09T09:02:03;16.70;99.90
22574;DHT22;11453;52.052;20.430;2022-09-09T09:12:44;16.80;99.90
22574;DHT22;11453;52.052;20.430;2022-09-09T09:15:34;16.80;99.90
22574;DHT22;11453;52.052;20.430;2022-09-09T09:18:03;16.90;99.90
22574;DHT22;11453;52.052;20.430;2022-09-09T09:24:00;17.00;99.90
22574;DHT22;11453;52.052;20.430;2022-09-09T09:26:36;17.00;99.90
22574;DHT22;11453;52.052;20.430;2022-09-09T09:29:14;17.10;99.90
22574;DHT22;11453;52.052;20.430;2022-09-09T09:31:44;17.10;99.90
22574;DHT22;11453;52.052;20.430;2022-09-09T09:34:11;17.20;99.90
22574;DHT22;11453;52.052;20.430;2022-09-09T09:37:07;17.20;99.90
22574;DHT22;11453;52.052;20.430;2022-09-09T09:39:37;17.20;99.90
22574;DHT22;11453;52.052;20.430;2022-09-09T09:42:10;17.20;99.90
22574;DHT22;11453;52.052;20.430;2022-09-09T09:44:39;17.20;99.90
22574;DHT22;11453;52.052;20.430;2022-09-09T09:49:31;17.20;99.90
22574;DHT22;11453;52.052;20.430;2022-09-09T09:52:04;17.20;99.90
22574;DHT22;11453;52.052;20.430;2022-09-09T09:54:38;17.20;99.90
22574;DHT22;11453;52.052;20.430;2022-09-09T09:57:12;17.10;99.90
22574;DHT22;11453;52.052;20.430;2022-09-09T09:59:38;17.10;99.90
22574;DHT22;11453;52.052;20.430;2022-09-09T10:04:43;17.20;99.90
22574;DHT22;11453;52.052;20.430;2022-09-09T10:07:19;17.20;99.90
22574;DHT22;11453;52.052;20.430;2022-09-09T10:09:54;17.20;99.90
22574;DHT22;11453;52.052;20.430;2022-09-09T10:15:28;17.30;99.90
22574;DHT22;11453;52.052;20.430;2022-09-09T10:18:01;17.40;99.90
22574;DHT22;11453;52.052;20.430;2022-09-09T10:20:49;17.40;99.90
22574;DHT22;11453;52.052;20.430;2022-09-09T10:31:25;17.60;99.90
22574;DHT22;11453;52.052;20.430;2022-09-09T10:42:43;17.70;99.90
22574;DHT22;11453;52.052;20.430;2022-09-09T10:45:18;17.70;99.90
22574;DHT22;11453;52.052;20.430;2022-09-09T10:51:13;17.80;99.90
22574;DHT22;11453;52.052;20.430;2022-09-09T10:56:20;17.80;99.90
22574;DHT22;11453;52.052;20.430;2022-09-09T11:01:26;17.90;99.90
22574;DHT22;11453;52.052;20.430;2022-09-09T11:04:03;17.90;99.90
22574;DHT22;11453;52.052;20.430;2022-09-09T11:06:36;18.00;99.90
22574;DHT22;11453;52.052;20.430;2022-09-09T11:09:03;18.10;99.90
22574;DHT22;11453;52.052;20.430;2022-09-09T11:11:39;18.10;99.90
22574;DHT22;11453;52.052;20.430;2022-09-09T11:14:19;18.20;99.90
22574;DHT22;11453;52.052;20.430;2022-09-09T11:16:58;18.30;99.90
22574;DHT22;11453;52.052;20.430;2022-09-09T11:19:35;18.40;99.90
22574;DHT22;11453;52.052;20.430;2022-09-09T11:24:37;18.40;99.90
22574;DHT22;11453;52.052;20.430;2022-09-09T11:27:21;18.40;99.90
22574;DHT22;11453;52.052;20.430;2022-09-09T11:40:29;18.50;99.90
22574;DHT22;11453;52.052;20.430;2022-09-09T11:42:48;18.50;99.90
22574;DHT22;11453;52.052;20.430;2022-09-09T11:45:26;18.40;99.90
22574;DHT22;11453;52.052;20.430;2022-09-09T11:47:56;18.40;99.90
22574;DHT22;11453;52.052;20.430;2022-09-09T11:52:49;18.40;99.90
22574;DHT22;11453;52.052;20.430;2022-09-09T11:55:25;18.50;99.90
22574;DHT22;11453;52.052;20.430;2022-09-09T12:00:45;18.60;99.90
22574;DHT22;11453;52.052;20.430;2022-09-09T12:03:39;18.70;99.90
22574;DHT22;11453;52.052;20.430;2022-09-09T12:09:06;18.70;99.90
22574;DHT22;11453;52.052;20.430;2022-09-09T12:11:33;18.60;99.90
22574;DHT22;11453;52.052;20.430;2022-09-09T12:14:00;18.50;99.90
22574;DHT22;11453;52.052;20.430;2022-09-09T12:16:34;18.50;99.90
22574;DHT22;11453;52.052;20.430;2022-09-09T12:19:18;18.50;99.90
22574;DHT22;11453;52.052;20.430;2022-09-09T12:22:07;18.50;99.90
22574;DHT22;11453;52.052;20.430;2022-09-09T12:25:09;18.60;99.90
22574;DHT22;11453;52.052;20.430;2022-09-09T12:28:08;18.70;99.90
22574;DHT22;11453;52.052;20.430;2022-09-09T12:30:41;18.80;99.90
22574;DHT22;11453;52.052;20.430;2022-09-09T12:33:12;18.70;99.90
22574;DHT22;11453;52.052;20.430;2022-09-09T12:35:39;18.80;99.90
22574;DHT22;11453;52.052;20.430;2022-09-09T12:38:21;18.80;99.90
22574;DHT22;11453;52.052;20.430;2022-09-09T12:40:58;18.90;99.90
22574;DHT22;11453;52.052;20.430;2022-09-09T12:43:25;19.00;99.90
22574;DHT22;11453;52.052;20.430;2022-09-09T12:45:57;19.00;99.90
22574;DHT22;11453;52.052;20.430;2022-09-09T12:48:37;19.10;99.90
22574;DHT22;11453;52.052;20.430;2022-09-09T12:51:05;19.20;99.90
22574;DHT22;11453;52.052;20.430;2022-09-09T12:53:35;19.30;99.90
22574;DHT22;11453;52.052;20.430;2022-09-09T12:56:06;19.50;99.90
22574;DHT22;11453;52.052;20.430;2022-09-09T12:58:33;19.90;99.90
22574;DHT22;11453;52.052;20.430;2022-09-09T13:01:02;20.80;99.90
22574;DHT22;11453;52.052;20.430;2022-09-09T13:03:33;21.80;99.90
22574;DHT22;11453;52.052;20.430;2022-09-09T13:06:11;24.00;98.10
22574;DHT22;11453;52.052;20.430;2022-09-09T13:08:38;25.40;93.90
22574;DHT22;11453;52.052;20.430;2022-09-09T13:11:09;26.00;90.10
22574;DHT22;11453;52.052;20.430;2022-09-09T13:13:39;26.20;87.60
22574;DHT22;11453;52.052;20.430;2022-09-09T13:16:18;26.30;84.60
22574;DHT22;11453;52.052;20.430;2022-09-09T13:18:45;26.10;83.40
22574;DHT22;11453;52.052;20.430;2022-09-09T13:21:12;26.20;83.90
22574;DHT22;11453;52.052;20.430;2022-09-09T13:23:38;26.10;81.70
22574;DHT22;11453;52.052;20.430;2022-09-09T13:26:25;25.80;82.00
22574;DHT22;11453;52.052;20.430;2022-09-09T13:28:52;25.50;82.30
22574;DHT22;11453;52.052;20.430;2022-09-09T13:33:47;25.00;83.10
22574;DHT22;11453;52.052;20.430;2022-09-09T13:36:13;24.50;83.50
22574;DHT22;11453;52.052;20.430;2022-09-09T13:38:58;23.90;84.60
22574;DHT22;11453;52.052;20.430;2022-09-09T13:41:41;23.30;87.50
22574;DHT22;11453;52.052;20.430;2022-09-09T13:44:19;22.80;90.00
22574;DHT22;11453;52.052;20.430;2022-09-09T13:49:31;22.20;91.90
22574;DHT22;11453;52.052;20.430;2022-09-09T13:52:14;22.10;92.30
22574;DHT22;11453;52.052;20.430;2022-09-09T13:54:42;22.10;92.60
22574;DHT22;11453;52.052;20.430;2022-09-09T13:57:16;22.50;92.90
22574;DHT22;11453;52.052;20.430;2022-09-09T13:59:42;22.90;92.50
22574;DHT22;11453;52.052;20.430;2022-09-09T14:02:08;23.30;91.90
22574;DHT22;11453;52.052;20.430;2022-09-09T14:04:34;23.70;91.40
22574;DHT22;11453;52.052;20.430;2022-09-09T14:07:00;23.90;90.80
22574;DHT22;11453;52.052;20.430;2022-09-09T14:09:26;24.00;90.30
22574;DHT22;11453;52.052;20.430;2022-09-09T14:11:52;24.00;90.20
22574;DHT22;11453;52.052;20.430;2022-09-09T14:14:17;23.80;90.00
22574;DHT22;11453;52.052;20.430;2022-09-09T14:16:43;23.70;89.90
